sensor_id;sensor_type;location;lat;lon;timestamp;P1;durP1;ratioP1;P2;durP2;ratioP2
11582;SDS011;34299;50.820;4.548;2023-04-15T00:02:16;1.60;;;1.40;;
11582;SDS011;34299;50.820;4.548;2023-04-15T00:04:45;2.40;;;1.60;;
11582;SDS011;34299;50.820;4.548;2023-04-15T00:07:13;2.83;;;1.80;;
11582;SDS011;34299;50.820;4.548;2023-04-15T00:09:40;4.17;;;2.17;;
11582;SDS011;34299;50.820;4.548;2023-04-15T00:12:08;3.37;;;1.50;;
11582;SDS011;34299;50.820;4.548;2023-04-15T00:14:36;3.60;;;1.93;;
11582;SDS011;34299;50.820;4.548;2023-04-15T00:17:04;3.00;;;1.30;;
11582;SDS011;34299;50.820;4.548;2023-04-15T00:19:31;2.53;;;1.70;;
11582;SDS011;34299;50.820;4.548;2023-04-15T00:22:00;2.33;;;1.57;;
11582;SDS011;34299;50.820;4.548;2023-04-15T00:24:27;1.83;;;1.33;;
11582;SDS011;34299;50.820;4.548;2023-04-15T00:26:55;1.83;;;1.70;;
11582;SDS011;34299;50.820;4.548;2023-04-15T00:29:23;1.97;;;1.30;;
11582;SDS011;34299;50.820;4.548;2023-04-15T00:31:50;1.83;;;1.40;;
11582;SDS011;34299;50.820;4.548;2023-04-15T00:34:30;1.63;;;1.53;;
11582;SDS011;34299;50.820;4.548;2023-04-15T00:36:57;4.13;;;2.83;;
11582;SDS011;34299;50.820;4.548;2023-04-15T00:39:24;4.07;;;2.90;;
11582;SDS011;34299;50.820;4.548;2023-04-15T00:41:52;4.00;;;3.20;;
11582;SDS011;34299;50.820;4.548;2023-04-15T00:44:19;6.03;;;3.37;;
11582;SDS011;34299;50.820;4.548;2023-04-15T00:46:47;6.67;;;3.97;;
11582;SDS011;34299;50.820;4.548;2023-04-15T00:49:14;6.57;;;4.17;;
11582;SDS011;34299;50.820;4.548;2023-04-15T00:51:44;5.80;;;4.43;;
11582;SDS011;34299;50.820;4.548;2023-04-15T00:54:11;7.13;;;4.10;;
11582;SDS011;34299;50.820;4.548;2023-04-15T00:56:38;5.47;;;3.67;;
11582;SDS011;34299;50.820;4.548;2023-04-15T00:59:06;5.97;;;3.40;;
11582;SDS011;34299;50.820;4.548;2023-04-15T01:01:34;5.00;;;3.20;;
11582;SDS011;34299;50.820;4.548;2023-04-15T01:04:01;4.73;;;2.63;;
11582;SDS011;34299;50.820;4.548;2023-04-15T01:06:29;3.33;;;2.17;;
11582;SDS011;34299;50.820;4.548;2023-04-15T01:08:58;2.40;;;1.93;;
11582;SDS011;34299;50.820;4.548;2023-04-15T01:11:26;3.40;;;2.30;;
11582;SDS011;34299;50.820;4.548;2023-04-15T01:13:54;2.80;;;1.90;;
11582;SDS011;34299;50.820;4.548;2023-04-15T01:16:22;3.73;;;1.63;;
11582;SDS011;34299;50.820;4.548;2023-04-15T01:18:49;3.10;;;2.07;;
11582;SDS011;34299;50.820;4.548;2023-04-15T01:21:17;2.70;;;2.00;;
11582;SDS011;34299;50.820;4.548;2023-04-15T01:23:44;4.17;;;1.70;;
11582;SDS011;34299;50.820;4.548;2023-04-15T01:26:14;3.50;;;1.50;;
11582;SDS011;34299;50.820;4.548;2023-04-15T01:28:41;3.47;;;1.87;;
11582;SDS011;34299;50.820;4.548;2023-04-15T01:31:09;4.43;;;2.00;;
11582;SDS011;34299;50.820;4.548;2023-04-15T01:33:37;3.23;;;1.80;;
11582;SDS011;34299;50.820;4.548;2023-04-15T01:36:05;3.03;;;1.90;;
11582;SDS011;34299;50.820;4.548;2023-04-15T01:38:34;4.10;;;2.43;;
11582;SDS011;34299;50.820;4.548;2023-04-15T01:41:01;4.30;;;1.77;;
11582;SDS011;34299;50.820;4.548;2023-04-15T01:43:30;2.47;;;2.13;;
11582;SDS011;34299;50.820;4.548;2023-04-15T01:45:57;2.20;;;1.90;;
11582;SDS011;34299;50.820;4.548;2023-04-15T01:48:24;2.13;;;1.40;;
11582;SDS011;34299;50.820;4.548;2023-04-15T01:50:53;2.50;;;1.77;;
11582;SDS011;34299;50.820;4.548;2023-04-15T01:53:21;4.23;;;2.40;;
11582;SDS011;34299;50.820;4.548;2023-04-15T01:55:49;2.10;;;1.83;;
11582;SDS011;34299;50.820;4.548;2023-04-15T01:58:16;2.60;;;1.57;;
11582;SDS011;34299;50.820;4.548;2023-04-15T02:00:45;4.60;;;2.40;;
11582;SDS011;34299;50.820;4.548;2023-04-15T02:03:12;2.87;;;2.03;;
11582;SDS011;34299;50.820;4.548;2023-04-15T02:05:39;2.67;;;1.90;;
11582;SDS011;34299;50.820;4.548;2023-04-15T02:08:06;2.87;;;1.50;;
11582;SDS011;34299;50.820;4.548;2023-04-15T02:10:33;5.03;;;2.13;;
11582;SDS011;34299;50.820;4.548;2023-04-15T02:13:01;2.70;;;1.83;;
11582;SDS011;34299;50.820;4.548;2023-04-15T02:15:28;4.10;;;2.10;;
11582;SDS011;34299;50.820;4.548;2023-04-15T02:17:57;2.67;;;1.63;;
11582;SDS011;34299;50.820;4.548;2023-04-15T02:20:25;2.13;;;1.60;;
11582;SDS011;34299;50.820;4.548;2023-04-15T02:22:54;4.33;;;1.63;;
11582;SDS011;34299;50.820;4.548;2023-04-15T02:25:21;3.17;;;1.77;;
11582;SDS011;34299;50.820;4.548;2023-04-15T02:27:49;2.33;;;1.77;;
11582;SDS011;34299;50.820;4.548;2023-04-15T02:30:16;3.87;;;2.10;;
11582;SDS011;34299;50.820;4.548;2023-04-15T02:32:43;1.80;;;1.67;;
11582;SDS011;34299;50.820;4.548;2023-04-15T02:35:12;3.03;;;1.83;;
11582;SDS011;34299;50.820;4.548;2023-04-15T02:37:39;3.23;;;2.07;;
11582;SDS011;34299;50.820;4.548;2023-04-15T02:40:10;2.87;;;2.00;;
11582;SDS011;34299;50.820;4.548;2023-04-15T02:42:37;4.10;;;1.93;;
11582;SDS011;34299;50.820;4.548;2023-04-15T02:45:05;3.27;;;1.83;;
11582;SDS011;34299;50.820;4.548;2023-04-15T02:47:32;3.27;;;2.27;;
11582;SDS011;34299;50.820;4.548;2023-04-15T02:50:00;4.53;;;2.50;;
11582;SDS011;34299;50.820;4.548;2023-04-15T02:52:28;5.00;;;2.37;;
11582;SDS011;34299;50.820;4.548;2023-04-15T02:54:55;4.83;;;2.63;;
11582;SDS011;34299;50.820;4.548;2023-04-15T02:57:25;4.70;;;2.57;;
11582;SDS011;34299;50.820;4.548;2023-04-15T02:59:53;6.17;;;2.70;;
11582;SDS011;34299;50.820;4.548;2023-04-15T03:02:20;4.77;;;2.90;;
11582;SDS011;34299;50.820;4.548;2023-04-15T03:04:47;3.37;;;2.00;;
11582;SDS011;34299;50.820;4.548;2023-04-15T03:07:14;4.17;;;2.63;;
11582;SDS011;34299;50.820;4.548;2023-04-15T03:09:43;4.37;;;2.10;;
11582;SDS011;34299;50.820;4.548;2023-04-15T03:12:11;3.70;;;2.23;;
11582;SDS011;34299;50.820;4.548;2023-04-15T03:14:39;4.60;;;2.50;;
11582;SDS011;34299;50.820;4.548;2023-04-15T03:17:06;4.93;;;2.77;;
11582;SDS011;34299;50.820;4.548;2023-04-15T03:19:33;2.87;;;2.23;;
11582;SDS011;34299;50.820;4.548;2023-04-15T03:22:00;5.07;;;2.63;;
11582;SDS011;34299;50.820;4.548;2023-04-15T03:24:27;3.43;;;2.50;;
11582;SDS011;34299;50.820;4.548;2023-04-15T03:26:56;5.03;;;3.70;;
11582;SDS011;34299;50.820;4.548;2023-04-15T03:29:24;6.53;;;3.17;;
11582;SDS011;34299;50.820;4.548;2023-04-15T03:31:51;5.10;;;2.50;;
11582;SDS011;34299;50.820;4.548;2023-04-15T03:34:18;4.00;;;3.13;;
11582;SDS011;34299;50.820;4.548;2023-04-15T03:36:46;6.80;;;3.43;;
11582;SDS011;34299;50.820;4.548;2023-04-15T03:39:13;4.60;;;2.77;;
11582;SDS011;34299;50.820;4.548;2023-04-15T03:41:40;6.17;;;3.10;;
11582;SDS011;34299;50.820;4.548;2023-04-15T03:44:09;4.10;;;3.37;;
11582;SDS011;34299;50.820;4.548;2023-04-15T03:46:36;5.00;;;3.33;;
11582;SDS011;34299;50.820;4.548;2023-04-15T03:49:05;5.83;;;3.43;;
11582;SDS011;34299;50.820;4.548;2023-04-15T03:51:32;4.90;;;3.47;;
11582;SDS011;34299;50.820;4.548;2023-04-15T03:53:59;7.67;;;3.50;;
11582;SDS011;34299;50.820;4.548;2023-04-15T03:56:27;6.77;;;4.00;;
11582;SDS011;34299;50.820;4.548;2023-04-15T03:58:54;4.30;;;3.40;;
11582;SDS011;34299;50.820;4.548;2023-04-15T04:01:23;6.13;;;3.40;;
11582;SDS011;34299;50.820;4.548;2023-04-15T04:03:50;5.73;;;3.80;;
11582;SDS011;34299;50.820;4.548;2023-04-15T04:06:17;6.00;;;4.20;;
11582;SDS011;34299;50.820;4.548;2023-04-15T04:08:45;5.80;;;4.13;;
11582;SDS011;34299;50.820;4.548;2023-04-15T04:11:12;5.27;;;3.87;;
11582;SDS011;34299;50.820;4.548;2023-04-15T04:13:39;5.03;;;3.87;;
11582;SDS011;34299;50.820;4.548;2023-04-15T04:16:06;6.23;;;4.10;;
11582;SDS011;34299;50.820;4.548;2023-04-15T04:18:35;6.00;;;3.67;;
11582;SDS011;34299;50.820;4.548;2023-04-15T04:21:02;5.17;;;4.17;;
11582;SDS011;34299;50.820;4.548;2023-04-15T04:23:30;6.47;;;4.33;;
11582;SDS011;34299;50.820;4.548;2023-04-15T04:25:57;5.60;;;3.90;;
11582;SDS011;34299;50.820;4.548;2023-04-15T04:28:24;8.50;;;4.37;;
11582;SDS011;34299;50.820;4.548;2023-04-15T04:30:51;7.00;;;4.00;;
11582;SDS011;34299;50.820;4.548;2023-04-15T04:33:18;6.03;;;4.27;;
11582;SDS011;34299;50.820;4.548;2023-04-15T04:35:47;5.33;;;4.00;;
11582;SDS011;34299;50.820;4.548;2023-04-15T04:38:14;6.20;;;4.30;;
11582;SDS011;34299;50.820;4.548;2023-04-15T04:40:41;7.20;;;4.53;;
11582;SDS011;34299;50.820;4.548;2023-04-15T04:43:08;5.97;;;4.27;;
11582;SDS011;34299;50.820;4.548;2023-04-15T04:45:36;7.47;;;4.60;;
11582;SDS011;34299;50.820;4.548;2023-04-15T04:48:03;5.63;;;4.27;;
11582;SDS011;34299;50.820;4.548;2023-04-15T04:50:31;6.27;;;4.33;;
11582;SDS011;34299;50.820;4.548;2023-04-15T04:52:59;6.17;;;4.00;;
11582;SDS011;34299;50.820;4.548;2023-04-15T04:55:27;5.70;;;4.57;;
11582;SDS011;34299;50.820;4.548;2023-04-15T04:57:54;8.33;;;4.77;;
11582;SDS011;34299;50.820;4.548;2023-04-15T05:00:21;5.50;;;4.27;;
11582;SDS011;34299;50.820;4.548;2023-04-15T05:02:48;7.20;;;4.53;;
11582;SDS011;34299;50.820;4.548;2023-04-15T05:05:16;7.73;;;4.30;;
11582;SDS011;34299;50.820;4.548;2023-04-15T05:07:43;5.83;;;4.20;;
11582;SDS011;34299;50.820;4.548;2023-04-15T05:10:11;5.93;;;4.30;;
11582;SDS011;34299;50.820;4.548;2023-04-15T05:12:41;6.00;;;4.43;;
11582;SDS011;34299;50.820;4.548;2023-04-15T05:15:09;6.33;;;4.50;;
11582;SDS011;34299;50.820;4.548;2023-04-15T05:17:36;5.53;;;4.43;;
11582;SDS011;34299;50.820;4.548;2023-04-15T05:20:03;6.77;;;4.60;;
11582;SDS011;34299;50.820;4.548;2023-04-15T05:22:31;6.00;;;4.20;;
11582;SDS011;34299;50.820;4.548;2023-04-15T05:24:58;7.63;;;4.50;;
11582;SDS011;34299;50.820;4.548;2023-04-15T05:27:27;7.70;;;4.30;;
11582;SDS011;34299;50.820;4.548;2023-04-15T05:29:54;5.83;;;4.47;;
11582;SDS011;34299;50.820;4.548;2023-04-15T05:32:21;6.33;;;4.70;;
11582;SDS011;34299;50.820;4.548;2023-04-15T05:34:48;7.03;;;4.47;;
11582;SDS011;34299;50.820;4.548;2023-04-15T05:37:16;4.53;;;4.13;;
11582;SDS011;34299;50.820;4.548;2023-04-15T05:39:45;8.57;;;4.53;;
11582;SDS011;34299;50.820;4.548;2023-04-15T05:42:12;5.27;;;4.60;;
11582;SDS011;34299;50.820;4.548;2023-04-15T05:44:41;6.53;;;4.17;;
11582;SDS011;34299;50.820;4.548;2023-04-15T05:47:08;5.60;;;4.07;;
11582;SDS011;34299;50.820;4.548;2023-04-15T05:49:35;8.23;;;3.53;;
11582;SDS011;34299;50.820;4.548;2023-04-15T05:52:02;5.30;;;4.03;;
11582;SDS011;34299;50.820;4.548;2023-04-15T05:54:30;7.27;;;4.43;;
11582;SDS011;34299;50.820;4.548;2023-04-15T05:56:57;6.33;;;3.90;;
11582;SDS011;34299;50.820;4.548;2023-04-15T05:59:25;5.60;;;3.90;;
11582;SDS011;34299;50.820;4.548;2023-04-15T06:01:53;5.77;;;3.67;;
11582;SDS011;34299;50.820;4.548;2023-04-15T06:04:21;5.40;;;4.37;;
11582;SDS011;34299;50.820;4.548;2023-04-15T06:06:48;7.03;;;3.80;;
11582;SDS011;34299;50.820;4.548;2023-04-15T06:09:15;5.07;;;3.90;;
11582;SDS011;34299;50.820;4.548;2023-04-15T06:11:42;6.57;;;3.67;;
11582;SDS011;34299;50.820;4.548;2023-04-15T06:14:10;4.53;;;3.60;;
11582;SDS011;34299;50.820;4.548;2023-04-15T06:16:37;6.27;;;3.97;;
11582;SDS011;34299;50.820;4.548;2023-04-15T06:19:05;7.17;;;3.70;;
11582;SDS011;34299;50.820;4.548;2023-04-15T06:21:33;6.47;;;3.50;;
11582;SDS011;34299;50.820;4.548;2023-04-15T06:24:00;6.40;;;3.80;;
11582;SDS011;34299;50.820;4.548;2023-04-15T06:26:28;4.40;;;3.47;;
11582;SDS011;34299;50.820;4.548;2023-04-15T06:28:55;9.57;;;4.03;;
11582;SDS011;34299;50.820;4.548;2023-04-15T06:31:22;5.57;;;3.57;;
11582;SDS011;34299;50.820;4.548;2023-04-15T06:33:49;4.47;;;3.80;;
11582;SDS011;34299;50.820;4.548;2023-04-15T06:36:18;4.67;;;3.73;;
11582;SDS011;34299;50.820;4.548;2023-04-15T06:38:45;4.67;;;3.47;;
11582;SDS011;34299;50.820;4.548;2023-04-15T06:41:13;3.73;;;3.23;;
11582;SDS011;34299;50.820;4.548;2023-04-15T06:43:40;4.37;;;3.63;;
11582;SDS011;34299;50.820;4.548;2023-04-15T06:46:07;8.20;;;3.70;;
11582;SDS011;34299;50.820;4.548;2023-04-15T06:48:35;4.17;;;3.50;;
11582;SDS011;34299;50.820;4.548;2023-04-15T06:51:02;4.90;;;3.77;;
11582;SDS011;34299;50.820;4.548;2023-04-15T06:53:31;4.53;;;3.53;;
11582;SDS011;34299;50.820;4.548;2023-04-15T06:55:59;4.80;;;3.40;;
11582;SDS011;34299;50.820;4.548;2023-04-15T06:58:26;6.20;;;3.80;;
11582;SDS011;34299;50.820;4.548;2023-04-15T07:00:53;7.77;;;4.10;;
11582;SDS011;34299;50.820;4.548;2023-04-15T07:03:21;5.73;;;3.30;;
11582;SDS011;34299;50.820;4.548;2023-04-15T07:05:48;7.83;;;4.00;;
11582;SDS011;34299;50.820;4.548;2023-04-15T07:08:15;7.43;;;3.57;;
11582;SDS011;34299;50.820;4.548;2023-04-15T07:10:44;13.17;;;3.90;;
11582;SDS011;34299;50.820;4.548;2023-04-15T07:13:11;6.77;;;4.07;;
11582;SDS011;34299;50.820;4.548;2023-04-15T07:15:39;5.23;;;4.20;;
11582;SDS011;34299;50.820;4.548;2023-04-15T07:18:06;6.13;;;4.50;;
11582;SDS011;34299;50.820;4.548;2023-04-15T07:20:33;6.33;;;4.20;;
11582;SDS011;34299;50.820;4.548;2023-04-15T07:23:01;6.10;;;3.67;;
11582;SDS011;34299;50.820;4.548;2023-04-15T07:25:28;6.20;;;3.63;;
11582;SDS011;34299;50.820;4.548;2023-04-15T07:27:56;7.73;;;4.03;;
11582;SDS011;34299;50.820;4.548;2023-04-15T07:30:24;4.83;;;3.97;;
11582;SDS011;34299;50.820;4.548;2023-04-15T07:32:51;5.50;;;4.17;;
11582;SDS011;34299;50.820;4.548;2023-04-15T07:35:18;7.57;;;3.80;;
11582;SDS011;34299;50.820;4.548;2023-04-15T07:37:46;5.43;;;4.03;;
11582;SDS011;34299;50.820;4.548;2023-04-15T07:40:13;5.43;;;4.00;;
11582;SDS011;34299;50.820;4.548;2023-04-15T07:42:40;6.33;;;4.63;;
11582;SDS011;34299;50.820;4.548;2023-04-15T07:45:10;7.07;;;4.90;;
11582;SDS011;34299;50.820;4.548;2023-04-15T07:47:37;10.10;;;5.27;;
11582;SDS011;34299;50.820;4.548;2023-04-15T07:50:06;7.70;;;5.40;;
11582;SDS011;34299;50.820;4.548;2023-04-15T07:52:33;7.13;;;5.10;;
11582;SDS011;34299;50.820;4.548;2023-04-15T07:55:03;8.60;;;5.63;;
11582;SDS011;34299;50.820;4.548;2023-04-15T07:57:31;5.37;;;4.57;;
11582;SDS011;34299;50.820;4.548;2023-04-15T07:59:58;6.63;;;4.00;;
11582;SDS011;34299;50.820;4.548;2023-04-15T08:02:27;8.70;;;4.57;;
11582;SDS011;34299;50.820;4.548;2023-04-15T08:04:54;7.07;;;5.23;;
11582;SDS011;34299;50.820;4.548;2023-04-15T08:07:22;8.33;;;4.83;;
11582;SDS011;34299;50.820;4.548;2023-04-15T08:09:49;10.43;;;5.40;;
11582;SDS011;34299;50.820;4.548;2023-04-15T08:12:16;9.83;;;5.80;;
11582;SDS011;34299;50.820;4.548;2023-04-15T08:14:43;7.70;;;5.37;;
11582;SDS011;34299;50.820;4.548;2023-04-15T08:17:11;10.90;;;6.47;;
11582;SDS011;34299;50.820;4.548;2023-04-15T08:19:40;6.57;;;5.60;;
11582;SDS011;34299;50.820;4.548;2023-04-15T08:22:07;8.67;;;5.50;;
11582;SDS011;34299;50.820;4.548;2023-04-15T08:24:36;8.90;;;6.33;;
11582;SDS011;34299;50.820;4.548;2023-04-15T08:27:03;9.67;;;5.23;;
11582;SDS011;34299;50.820;4.548;2023-04-15T08:29:32;7.87;;;6.03;;
11582;SDS011;34299;50.820;4.548;2023-04-15T08:31:59;10.70;;;6.60;;
11582;SDS011;34299;50.820;4.548;2023-04-15T08:34:26;8.37;;;6.37;;
11582;SDS011;34299;50.820;4.548;2023-04-15T08:36:55;10.73;;;6.07;;
11582;SDS011;34299;50.820;4.548;2023-04-15T08:39:22;8.20;;;6.40;;
11582;SDS011;34299;50.820;4.548;2023-04-15T08:41:50;11.80;;;6.13;;
11582;SDS011;34299;50.820;4.548;2023-04-15T08:44:18;9.43;;;5.93;;
11582;SDS011;34299;50.820;4.548;2023-04-15T08:46:46;9.00;;;6.00;;
11582;SDS011;34299;50.820;4.548;2023-04-15T08:49:13;7.33;;;5.83;;
11582;SDS011;34299;50.820;4.548;2023-04-15T08:51:41;7.43;;;5.40;;
11582;SDS011;34299;50.820;4.548;2023-04-15T08:54:10;7.83;;;5.27;;
11582;SDS011;34299;50.820;4.548;2023-04-15T08:56:38;8.27;;;5.90;;
11582;SDS011;34299;50.820;4.548;2023-04-15T08:59:05;7.07;;;4.97;;
11582;SDS011;34299;50.820;4.548;2023-04-15T09:01:33;7.63;;;4.60;;
11582;SDS011;34299;50.820;4.548;2023-04-15T09:04:01;6.17;;;4.40;;
11582;SDS011;34299;50.820;4.548;2023-04-15T09:06:30;7.63;;;4.03;;
11582;SDS011;34299;50.820;4.548;2023-04-15T09:08:58;5.10;;;3.90;;
11582;SDS011;34299;50.820;4.548;2023-04-15T09:11:26;6.07;;;3.87;;
11582;SDS011;34299;50.820;4.548;2023-04-15T09:13:56;4.87;;;3.80;;
11582;SDS011;34299;50.820;4.548;2023-04-15T09:16:23;5.43;;;3.93;;
11582;SDS011;34299;50.820;4.548;2023-04-15T09:18:50;5.80;;;3.77;;
11582;SDS011;34299;50.820;4.548;2023-04-15T09:21:17;6.93;;;4.37;;
11582;SDS011;34299;50.820;4.548;2023-04-15T09:23:54;9.80;;;4.37;;
11582;SDS011;34299;50.820;4.548;2023-04-15T09:26:33;6.60;;;3.70;;
11582;SDS011;34299;50.820;4.548;2023-04-15T09:29:02;5.77;;;4.37;;
11582;SDS011;34299;50.820;4.548;2023-04-15T09:31:30;5.93;;;4.40;;
11582;SDS011;34299;50.820;4.548;2023-04-15T09:33:58;5.23;;;3.93;;
11582;SDS011;34299;50.820;4.548;2023-04-15T09:36:25;8.40;;;4.60;;
11582;SDS011;34299;50.820;4.548;2023-04-15T09:38:54;7.17;;;4.93;;
11582;SDS011;34299;50.820;4.548;2023-04-15T09:41:22;6.73;;;4.50;;
11582;SDS011;34299;50.820;4.548;2023-04-15T09:43:51;5.90;;;3.97;;
11582;SDS011;34299;50.820;4.548;2023-04-15T09:46:18;5.57;;;4.07;;
11582;SDS011;34299;50.820;4.548;2023-04-15T09:48:46;5.73;;;4.57;;
11582;SDS011;34299;50.820;4.548;2023-04-15T09:51:13;9.03;;;4.20;;
11582;SDS011;34299;50.820;4.548;2023-04-15T09:53:40;6.13;;;3.80;;
11582;SDS011;34299;50.820;4.548;2023-04-15T09:56:07;5.77;;;3.57;;
11582;SDS011;34299;50.820;4.548;2023-04-15T09:58:35;6.97;;;3.43;;
11582;SDS011;34299;50.820;4.548;2023-04-15T10:01:04;5.33;;;3.10;;
11582;SDS011;34299;50.820;4.548;2023-04-15T10:03:33;3.93;;;3.10;;
11582;SDS011;34299;50.820;4.548;2023-04-15T10:06:01;4.00;;;2.90;;
11582;SDS011;34299;50.820;4.548;2023-04-15T10:08:30;6.70;;;3.60;;
11582;SDS011;34299;50.820;4.548;2023-04-15T10:10:58;4.03;;;3.23;;
11582;SDS011;34299;50.820;4.548;2023-04-15T10:13:26;5.30;;;3.80;;
11582;SDS011;34299;50.820;4.548;2023-04-15T10:16:00;6.50;;;3.60;;
11582;SDS011;34299;50.820;4.548;2023-04-15T10:18:33;6.40;;;3.40;;
11582;SDS011;34299;50.820;4.548;2023-04-15T10:21:01;4.50;;;3.17;;
11582;SDS011;34299;50.820;4.548;2023-04-15T10:23:28;5.13;;;2.87;;
11582;SDS011;34299;50.820;4.548;2023-04-15T10:25:55;4.33;;;3.03;;
11582;SDS011;34299;50.820;4.548;2023-04-15T10:28:23;4.00;;;3.00;;
11582;SDS011;34299;50.820;4.548;2023-04-15T10:30:51;4.37;;;3.40;;
11582;SDS011;34299;50.820;4.548;2023-04-15T10:33:20;4.07;;;2.53;;
11582;SDS011;34299;50.820;4.548;2023-04-15T10:35:49;3.40;;;2.60;;
11582;SDS011;34299;50.820;4.548;2023-04-15T10:38:33;3.37;;;3.00;;
11582;SDS011;34299;50.820;4.548;2023-04-15T10:43:50;3.50;;;2.83;;
11582;SDS011;34299;50.820;4.548;2023-04-15T10:46:18;3.37;;;2.37;;
11582;SDS011;34299;50.820;4.548;2023-04-15T10:48:46;3.60;;;2.00;;
11582;SDS011;34299;50.820;4.548;2023-04-15T10:51:15;2.53;;;2.33;;
11582;SDS011;34299;50.820;4.548;2023-04-15T10:53:43;4.53;;;1.80;;
11582;SDS011;34299;50.820;4.548;2023-04-15T10:56:10;3.63;;;1.83;;
11582;SDS011;34299;50.820;4.548;2023-04-15T10:58:40;2.90;;;1.93;;
11582;SDS011;34299;50.820;4.548;2023-04-15T11:01:08;2.30;;;1.70;;
11582;SDS011;34299;50.820;4.548;2023-04-15T11:03:36;3.50;;;2.13;;
11582;SDS011;34299;50.820;4.548;2023-04-15T11:06:05;3.07;;;2.30;;
11582;SDS011;34299;50.820;4.548;2023-04-15T11:11:22;2.37;;;2.10;;
11582;SDS011;34299;50.820;4.548;2023-04-15T11:13:49;1.83;;;1.60;;
11582;SDS011;34299;50.820;4.548;2023-04-15T11:16:18;2.40;;;1.63;;
11582;SDS011;34299;50.820;4.548;2023-04-15T11:18:52;2.40;;;2.20;;
11582;SDS011;34299;50.820;4.548;2023-04-15T11:21:20;4.07;;;2.83;;
11582;SDS011;34299;50.820;4.548;2023-04-15T11:23:50;4.00;;;2.70;;
11582;SDS011;34299;50.820;4.548;2023-04-15T11:26:18;5.47;;;3.03;;
11582;SDS011;34299;50.820;4.548;2023-04-15T11:28:46;3.10;;;2.50;;
11582;SDS011;34299;50.820;4.548;2023-04-15T11:31:14;2.97;;;1.87;;
11582;SDS011;34299;50.820;4.548;2023-04-15T11:33:44;2.10;;;1.90;;
11582;SDS011;34299;50.820;4.548;2023-04-15T11:36:12;2.87;;;1.67;;
11582;SDS011;34299;50.820;4.548;2023-04-15T11:38:41;2.10;;;1.90;;
11582;SDS011;34299;50.820;4.548;2023-04-15T11:41:08;2.07;;;1.87;;
11582;SDS011;34299;50.820;4.548;2023-04-15T11:43:36;2.90;;;2.60;;
11582;SDS011;34299;50.820;4.548;2023-04-15T11:46:04;5.03;;;2.50;;
11582;SDS011;34299;50.820;4.548;2023-04-15T11:48:33;2.80;;;2.20;;
11582;SDS011;34299;50.820;4.548;2023-04-15T11:51:01;5.30;;;2.50;;
11582;SDS011;34299;50.820;4.548;2023-04-15T11:53:35;4.00;;;3.23;;
11582;SDS011;34299;50.820;4.548;2023-04-15T11:56:03;2.83;;;2.37;;
11582;SDS011;34299;50.820;4.548;2023-04-15T11:58:33;2.77;;;2.37;;
11582;SDS011;34299;50.820;4.548;2023-04-15T12:01:00;3.03;;;2.70;;
11582;SDS011;34299;50.820;4.548;2023-04-15T12:03:29;4.17;;;2.40;;
11582;SDS011;34299;50.820;4.548;2023-04-15T12:06:07;2.60;;;1.90;;
11582;SDS011;34299;50.820;4.548;2023-04-15T12:08:52;1.93;;;1.33;;
11582;SDS011;34299;50.820;4.548;2023-04-15T12:11:19;3.60;;;1.63;;
11582;SDS011;34299;50.820;4.548;2023-04-15T12:13:47;1.40;;;1.27;;
11582;SDS011;34299;50.820;4.548;2023-04-15T12:16:16;1.60;;;1.37;;
11582;SDS011;34299;50.820;4.548;2023-04-15T12:18:45;3.23;;;1.33;;
11582;SDS011;34299;50.820;4.548;2023-04-15T12:21:12;2.50;;;1.80;;
11582;SDS011;34299;50.820;4.548;2023-04-15T12:23:46;2.57;;;1.70;;
11582;SDS011;34299;50.820;4.548;2023-04-15T12:26:14;2.20;;;1.87;;
11582;SDS011;34299;50.820;4.548;2023-04-15T12:28:42;3.97;;;2.10;;
11582;SDS011;34299;50.820;4.548;2023-04-15T12:31:09;3.50;;;2.40;;
11582;SDS011;34299;50.820;4.548;2023-04-15T12:33:37;3.03;;;2.17;;
11582;SDS011;34299;50.820;4.548;2023-04-15T12:36:06;2.70;;;1.77;;
11582;SDS011;34299;50.820;4.548;2023-04-15T12:38:33;1.27;;;1.17;;
11582;SDS011;34299;50.820;4.548;2023-04-15T12:41:00;2.17;;;1.60;;
11582;SDS011;34299;50.820;4.548;2023-04-15T12:43:28;1.40;;;1.10;;
11582;SDS011;34299;50.820;4.548;2023-04-15T12:45:55;3.93;;;1.43;;
11582;SDS011;34299;50.820;4.548;2023-04-15T12:48:22;1.63;;;1.37;;
11582;SDS011;34299;50.820;4.548;2023-04-15T12:50:49;1.47;;;1.20;;
11582;SDS011;34299;50.820;4.548;2023-04-15T12:53:19;1.90;;;1.43;;
11582;SDS011;34299;50.820;4.548;2023-04-15T12:55:47;4.33;;;1.60;;
11582;SDS011;34299;50.820;4.548;2023-04-15T12:58:14;2.23;;;1.23;;
11582;SDS011;34299;50.820;4.548;2023-04-15T13:00:41;2.13;;;1.40;;
11582;SDS011;34299;50.820;4.548;2023-04-15T13:03:09;1.43;;;1.30;;
11582;SDS011;34299;50.820;4.548;2023-04-15T13:05:36;4.07;;;1.50;;
11582;SDS011;34299;50.820;4.548;2023-04-15T13:08:04;1.67;;;1.30;;
11582;SDS011;34299;50.820;4.548;2023-04-15T13:10:33;1.87;;;1.50;;
11582;SDS011;34299;50.820;4.548;2023-04-15T13:13:01;5.43;;;2.30;;
11582;SDS011;34299;50.820;4.548;2023-04-15T13:15:29;3.47;;;1.50;;
11582;SDS011;34299;50.820;4.548;2023-04-15T13:17:56;1.87;;;1.50;;
11582;SDS011;34299;50.820;4.548;2023-04-15T13:20:23;2.20;;;1.50;;
11582;SDS011;34299;50.820;4.548;2023-04-15T13:22:51;1.13;;;1.07;;
11582;SDS011;34299;50.820;4.548;2023-04-15T13:25:19;5.00;;;1.43;;
11582;SDS011;34299;50.820;4.548;2023-04-15T13:27:48;3.17;;;1.37;;
11582;SDS011;34299;50.820;4.548;2023-04-15T13:30:15;1.73;;;1.63;;
11582;SDS011;34299;50.820;4.548;2023-04-15T13:32:42;1.73;;;1.57;;
11582;SDS011;34299;50.820;4.548;2023-04-15T13:35:10;1.60;;;1.50;;
11582;SDS011;34299;50.820;4.548;2023-04-15T13:37:37;2.10;;;1.60;;
11582;SDS011;34299;50.820;4.548;2023-04-15T13:40:05;2.33;;;1.43;;
11582;SDS011;34299;50.820;4.548;2023-04-15T13:42:32;2.40;;;1.60;;
11582;SDS011;34299;50.820;4.548;2023-04-15T13:45:01;2.20;;;1.80;;
11582;SDS011;34299;50.820;4.548;2023-04-15T13:47:29;2.13;;;1.30;;
11582;SDS011;34299;50.820;4.548;2023-04-15T13:49:56;5.43;;;2.07;;
11582;SDS011;34299;50.820;4.548;2023-04-15T13:52:23;1.70;;;1.50;;
11582;SDS011;34299;50.820;4.548;2023-04-15T13:54:51;2.43;;;1.70;;
11582;SDS011;34299;50.820;4.548;2023-04-15T13:57:18;2.43;;;1.80;;
11582;SDS011;34299;50.820;4.548;2023-04-15T13:59:47;2.63;;;1.53;;
11582;SDS011;34299;50.820;4.548;2023-04-15T14:02:16;1.87;;;1.60;;
11582;SDS011;34299;50.820;4.548;2023-04-15T14:04:43;1.80;;;1.50;;
11582;SDS011;34299;50.820;4.548;2023-04-15T14:07:10;2.53;;;1.87;;
11582;SDS011;34299;50.820;4.548;2023-04-15T14:09:37;2.57;;;1.70;;
11582;SDS011;34299;50.820;4.548;2023-04-15T14:12:05;1.30;;;1.20;;
11582;SDS011;34299;50.820;4.548;2023-04-15T14:14:32;1.80;;;1.47;;
11582;SDS011;34299;50.820;4.548;2023-04-15T14:16:59;3.53;;;1.80;;
11582;SDS011;34299;50.820;4.548;2023-04-15T14:19:28;1.87;;;1.60;;
11582;SDS011;34299;50.820;4.548;2023-04-15T14:21:56;1.67;;;1.47;;
11582;SDS011;34299;50.820;4.548;2023-04-15T14:24:23;1.60;;;1.10;;
11582;SDS011;34299;50.820;4.548;2023-04-15T14:26:50;2.23;;;1.93;;
11582;SDS011;34299;50.820;4.548;2023-04-15T14:29:17;2.17;;;1.00;;
11582;SDS011;34299;50.820;4.548;2023-04-15T14:31:45;1.37;;;1.07;;
11582;SDS011;34299;50.820;4.548;2023-04-15T14:34:12;0.80;;;0.80;;
11582;SDS011;34299;50.820;4.548;2023-04-15T14:36:41;0.80;;;0.80;;
11582;SDS011;34299;50.820;4.548;2023-04-15T14:39:09;1.73;;;0.70;;
11582;SDS011;34299;50.820;4.548;2023-04-15T14:41:36;1.50;;;0.83;;
11582;SDS011;34299;50.820;4.548;2023-04-15T14:44:03;0.87;;;0.83;;
11582;SDS011;34299;50.820;4.548;2023-04-15T14:46:33;2.47;;;0.90;;
11582;SDS011;34299;50.820;4.548;2023-04-15T14:49:00;2.47;;;1.30;;
11582;SDS011;34299;50.820;4.548;2023-04-15T14:51:27;3.90;;;1.53;;
11582;SDS011;34299;50.820;4.548;2023-04-15T14:53:56;0.90;;;0.90;;
11582;SDS011;34299;50.820;4.548;2023-04-15T14:56:24;1.33;;;1.13;;
11582;SDS011;34299;50.820;4.548;2023-04-15T14:58:51;1.83;;;1.20;;